createdAt,value
2022-08-07T00:00:15.348Z,73.00
2022-08-07T00:02:45.766Z,75.20
2022-08-07T00:05:12.788Z,76.60
2022-08-07T00:07:40.932Z,76.80
2022-08-07T00:10:26.274Z,76.90
2022-08-07T00:13:00.320Z,78.00
2022-08-07T00:15:38.291Z,79.10
2022-08-07T00:18:19.440Z,80.30
2022-08-07T00:20:49.558Z,80.50
2022-08-07T00:23:17.226Z,81.90
2022-08-07T00:25:45.769Z,82.50
2022-08-07T00:28:21.992Z,82.30
2022-08-07T00:30:49.590Z,83.00
2022-08-07T00:33:16.841Z,83.50
2022-08-07T00:35:49.519Z,84.20
2022-08-07T00:38:16.789Z,83.80
2022-08-07T00:40:59.801Z,83.30
2022-08-07T00:44:02.061Z,84.90
2022-08-07T00:46:14.473Z,85.00
2022-08-07T00:48:42.345Z,86.00
2022-08-07T00:51:10.571Z,86.00
2022-08-07T00:53:39.361Z,86.90
2022-08-07T00:56:18.746Z,86.70
2022-08-07T00:58:47.444Z,86.40
2022-08-07T01:01:18.800Z,87.60
2022-08-07T01:03:55.865Z,86.40
2022-08-07T01:06:30.306Z,87.50
2022-08-07T01:09:01.581Z,87.80
2022-08-07T01:12:08.979Z,87.60
2022-08-07T01:14:28.407Z,88.60
2022-08-07T01:16:56.795Z,89.20
2022-08-07T01:19:26.657Z,89.30
2022-08-07T01:21:55.628Z,89.40
2022-08-07T01:24:30.550Z,89.60
2022-08-07T01:27:00.812Z,89.20
2022-08-07T01:29:31.388Z,89.50
2022-08-07T01:32:05.501Z,89.60
2022-08-07T01:34:33.843Z,90.10
2022-08-07T01:37:09.767Z,90.80
2022-08-07T01:39:40.643Z,90.80
2022-08-07T01:42:37.628Z,91.40
2022-08-07T01:45:09.677Z,91.30
2022-08-07T01:48:17.538Z,91.70
2022-08-07T01:50:29.064Z,91.70
2022-08-07T01:53:00.202Z,90.90
2022-08-07T01:55:34.166Z,91.40
2022-08-07T01:58:29.623Z,91.40
2022-08-07T02:01:10.271Z,91.20
2022-08-07T02:03:57.220Z,91.60
2022-08-07T02:06:31.968Z,91.20
2022-08-07T02:09:05.100Z,91.80
2022-08-07T02:12:03.667Z,92.10
2022-08-07T02:14:36.165Z,92.20
2022-08-07T02:17:24.786Z,92.70
2022-08-07T02:20:05.817Z,93.20
2022-08-07T02:22:41.432Z,93.30
2022-08-07T02:25:17.280Z,93.60
2022-08-07T02:27:56.733Z,93.30
2022-08-07T02:30:24.981Z,94.30
2022-08-07T02:33:01.002Z,94.40
2022-08-07T02:36:30.864Z,93.80
2022-08-07T02:38:32.299Z,93.80
2022-08-07T02:41:04.309Z,94.50
2022-08-07T02:43:39.490Z,94.20
2022-08-07T02:46:08.948Z,94.20
2022-08-07T02:48:38.414Z,94.50
2022-08-07T02:51:28.999Z,94.40
2022-08-07T02:54:01.870Z,94.60
2022-08-07T02:56:31.883Z,94.90
2022-08-07T02:59:02.495Z,95.60
2022-08-07T03:01:36.469Z,95.50
2022-08-07T03:04:13.892Z,95.80
2022-08-07T03:06:44.755Z,96.00
2022-08-07T03:09:14.675Z,95.70
2022-08-07T03:12:08.053Z,96.10
2022-08-07T03:14:48.570Z,95.50
2022-08-07T03:17:20.143Z,95.70
2022-08-07T03:19:54.900Z,95.50
2022-08-07T03:22:29.616Z,95.50
2022-08-07T03:25:00.454Z,95.70
2022-08-07T03:27:58.911Z,96.00
2022-08-07T03:30:18.645Z,95.60
2022-08-07T03:32:58.307Z,95.10
2022-08-07T03:35:43.827Z,95.30
2022-08-07T03:38:21.469Z,95.20
2022-08-07T03:41:01.433Z,95.60
2022-08-07T03:43:33.453Z,95.60
2022-08-07T03:46:10.563Z,95.70
2022-08-07T03:49:03.103Z,95.80
2022-08-07T03:51:47.099Z,95.50
2022-08-07T03:54:36.366Z,95.60
2022-08-07T03:57:08.189Z,96.00
2022-08-07T03:59:37.528Z,95.20
2022-08-07T04:02:14.934Z,95.40
2022-08-07T04:04:43.070Z,95.40
2022-08-07T04:07:26.960Z,95.70
2022-08-07T04:10:02.042Z,95.90
2022-08-07T04:12:31.802Z,96.10
2022-08-07T04:15:05.015Z,96.20
2022-08-07T04:18:31.243Z,97.00
2022-08-07T04:20:24.123Z,96.60
2022-08-07T04:23:01.629Z,96.90
2022-08-07T04:25:39.345Z,96.90
2022-08-07T04:28:10.309Z,97.00
2022-08-07T04:30:55.455Z,97.70
2022-08-07T04:33:29.343Z,97.20
2022-08-07T04:35:58.547Z,97.10
2022-08-07T04:38:28.852Z,97.30
2022-08-07T04:40:57.642Z,97.40
2022-08-07T04:44:12.888Z,97.80
2022-08-07T04:47:08.640Z,97.40
2022-08-07T04:50:04.894Z,97.10
2022-08-07T04:52:52.065Z,97.20
2022-08-07T04:58:14.999Z,98.00
2022-08-07T04:59:07.759Z,98.00
2022-08-07T05:01:50.595Z,98.30
2022-08-07T05:04:22.135Z,98.20
2022-08-07T05:07:19.687Z,97.90
2022-08-07T05:10:11.031Z,96.70
2022-08-07T05:14:44.440Z,95.30
2022-08-07T05:15:57.039Z,94.90
2022-08-07T05:18:29.837Z,96.30
2022-08-07T05:21:02.231Z,96.50
2022-08-07T05:23:42.996Z,95.30
2022-08-07T05:26:23.539Z,94.80
2022-08-07T05:28:56.494Z,95.60
2022-08-07T05:31:34.680Z,97.00
2022-08-07T05:34:10.980Z,97.00
2022-08-07T05:36:48.826Z,96.90
2022-08-07T05:40:06.920Z,97.20
2022-08-07T05:42:33.662Z,97.10
2022-08-07T05:45:26.042Z,97.40
2022-08-07T05:48:02.176Z,96.70
2022-08-07T05:50:34.617Z,97.40
2022-08-07T05:53:03.047Z,96.80
2022-08-07T05:56:03.478Z,97.30
2022-08-07T05:58:36.288Z,97.20
2022-08-07T06:01:10.431Z,96.10
2022-08-07T06:03:56.573Z,96.50
2022-08-07T06:06:31.320Z,96.20
2022-08-07T06:09:04.667Z,96.90
2022-08-07T06:11:35.180Z,96.30
2022-08-07T06:14:13.067Z,96.30
2022-08-07T06:16:55.966Z,96.10
2022-08-07T06:19:48.048Z,95.30
2022-08-07T06:22:23.397Z,95.20
2022-08-07T06:25:01.499Z,94.10
2022-08-07T06:27:44.142Z,92.90
2022-08-07T06:30:32.099Z,92.40
2022-08-07T06:33:15.599Z,91.80
2022-08-07T06:36:06.752Z,90.40
2022-08-07T06:38:33.238Z,90.00
2022-08-07T06:41:09.776Z,87.90
2022-08-07T06:43:46.447Z,89.10
2022-08-07T06:46:31.416Z,88.00
2022-08-07T06:49:04.380Z,86.00
2022-08-07T06:51:49.577Z,86.00
2022-08-07T06:55:33.671Z,85.00
2022-08-07T06:57:09.556Z,85.30
2022-08-07T07:00:15.097Z,83.20
2022-08-07T07:02:53.642Z,79.80
2022-08-07T07:06:02.440Z,74.20
2022-08-07T07:08:12.258Z,69.80
2022-08-07T07:10:47.576Z,66.70
2022-08-07T07:13:55.765Z,58.70
2022-08-07T07:16:22.038Z,58.30
2022-08-07T07:18:54.502Z,56.90
2022-08-07T07:21:27.045Z,55.90
2022-08-07T07:24:12.566Z,55.20
2022-08-07T07:26:51.944Z,54.50
2022-08-07T07:29:56.492Z,50.00
2022-08-07T07:32:13.884Z,50.60
2022-08-07T07:34:45.390Z,46.00
2022-08-07T07:37:22.151Z,41.80
2022-08-07T07:40:10.227Z,44.80
2022-08-07T07:42:47.306Z,41.50
2022-08-07T07:45:24.474Z,41.70
2022-08-07T07:48:11.289Z,40.10
2022-08-07T07:50:54.256Z,38.30
2022-08-07T07:53:25.755Z,40.20
2022-08-07T07:56:01.080Z,36.40
2022-08-07T07:58:37.139Z,35.00
2022-08-07T08:02:02.855Z,32.00
2022-08-07T08:04:06.507Z,31.40
2022-08-07T08:06:40.722Z,30.90
2022-08-07T08:09:23.301Z,24.60
2022-08-07T08:12:01.913Z,26.90
2022-08-07T08:14:36.348Z,28.40
2022-08-07T08:17:41.194Z,26.70
2022-08-07T08:20:22.923Z,25.80
2022-08-07T08:23:11.421Z,26.30
2022-08-07T08:26:06.830Z,22.40
2022-08-07T08:28:45.120Z,21.30
2022-08-07T08:31:29.906Z,21.30
2022-08-07T08:34:08.345Z,17.10
2022-08-07T08:36:37.117Z,16.40
2022-08-07T08:39:09.052Z,13.70
2022-08-07T08:41:57.391Z,11.40
2022-08-07T08:44:48.675Z,12.60
2022-08-07T08:47:52.211Z,9.70
2022-08-07T08:50:34.975Z,11.10
2022-08-07T08:53:29.467Z,8.20
2022-08-07T08:56:04.493Z,9.00
2022-08-07T08:58:45.808Z,8.40
2022-08-07T09:01:29.924Z,8.50
2022-08-07T09:04:25.972Z,7.80
2022-08-07T09:07:28.564Z,5.40
2022-08-07T09:10:23.834Z,6.00
2022-08-07T09:13:15.072Z,5.80
2022-08-07T09:16:25.229Z,7.60
2022-08-07T09:18:58.449Z,6.00
2022-08-07T09:21:34.207Z,3.70
2022-08-07T09:24:54.881Z,6.70
2022-08-07T09:27:59.722Z,3.70
2022-08-07T09:30:54.862Z,1.70
2022-08-07T09:34:06.615Z,2.80
2022-08-07T09:36:43.122Z,1.00
2022-08-07T09:39:54.190Z,1.00
2022-08-07T09:42:22.797Z,1.00
2022-08-07T09:47:49.766Z,1.00
2022-08-07T09:48:11.815Z,1.00
2022-08-07T09:51:01.144Z,1.00
2022-08-07T09:53:40.876Z,1.50
2022-08-07T09:56:37.319Z,1.00
2022-08-07T09:59:14.582Z,1.00
2022-08-07T10:02:00.354Z,1.00
2022-08-07T10:04:47.584Z,1.00
2022-08-07T10:07:52.662Z,1.00
2022-08-07T10:10:48.286Z,1.00
2022-08-07T10:14:01.027Z,1.00
2022-08-07T10:16:55.229Z,1.00
2022-08-07T10:19:47.694Z,1.00
2022-08-07T10:22:33.563Z,1.00
2022-08-07T10:25:04.786Z,1.00
2022-08-07T10:28:12.606Z,1.00
2022-08-07T10:30:53.561Z,1.00
2022-08-07T10:34:15.133Z,1.00
2022-08-07T10:37:12.526Z,1.00
2022-08-07T10:39:41.291Z,1.00
2022-08-07T10:42:36.625Z,1.00
2022-08-07T10:45:19.423Z,1.00
2022-08-07T10:48:21.639Z,1.00
2022-08-07T10:50:58.301Z,1.00
2022-08-07T10:53:41.926Z,1.00
2022-08-07T10:56:41.895Z,1.00
2022-08-07T10:59:36.995Z,1.00
2022-08-07T11:02:32.992Z,1.00
2022-08-07T11:05:08.519Z,1.00
2022-08-07T11:07:59.453Z,1.00
2022-08-07T11:10:57.912Z,1.00
2022-08-07T11:14:43.469Z,1.00
2022-08-07T11:16:30.791Z,1.00
2022-08-07T11:19:38.450Z,1.00
2022-08-07T11:22:18.975Z,1.00
2022-08-07T11:25:11.731Z,1.00
2022-08-07T11:28:06.321Z,1.00
2022-08-07T11:30:56.360Z,1.00
2022-08-07T11:33:59.496Z,1.00
2022-08-07T11:36:39.540Z,1.00
2022-08-07T11:39:59.865Z,1.00
2022-08-07T11:42:47.525Z,1.00
2022-08-07T11:45:36.007Z,1.00
2022-08-07T11:48:18.293Z,1.00
2022-08-07T11:51:41.818Z,1.00
2022-08-07T11:54:42.112Z,1.00
2022-08-07T11:58:02.413Z,1.00
2022-08-07T12:00:40.452Z,1.00
2022-08-07T12:03:41.403Z,1.00
2022-08-07T12:06:39.026Z,1.00
2022-08-07T12:09:23.192Z,1.00
2022-08-07T12:12:12.080Z,1.00
2022-08-07T12:14:44.764Z,1.00
2022-08-07T12:17:26.416Z,1.00
2022-08-07T12:20:30.075Z,1.00
2022-08-07T12:24:05.069Z,1.00
2022-08-07T12:26:46.208Z,1.00
2022-08-07T12:29:38.203Z,1.00
2022-08-07T12:32:20.722Z,1.00
2022-08-07T12:34:53.395Z,1.00
2022-08-07T12:37:28.269Z,1.00
2022-08-07T12:40:44.079Z,1.00
2022-08-07T12:43:09.591Z,1.00
2022-08-07T12:45:57.060Z,1.00
2022-08-07T12:48:41.444Z,1.00
2022-08-07T12:51:46.468Z,1.00
2022-08-07T12:54:38.606Z,1.00
2022-08-07T12:57:09.810Z,1.00
2022-08-07T12:59:53.964Z,1.00
2022-08-07T13:02:33.287Z,1.00
2022-08-07T13:06:02.460Z,1.00
2022-08-07T13:08:19.085Z,1.00
2022-08-07T13:11:01.114Z,1.00
2022-08-07T13:13:52.004Z,1.00
2022-08-07T13:16:43.812Z,1.00
2022-08-07T13:19:45.843Z,1.00
2022-08-07T13:22:28.131Z,1.00
2022-08-07T13:25:02.459Z,1.00
2022-08-07T13:28:14.551Z,1.00
2022-08-07T13:30:49.081Z,1.00
2022-08-07T13:34:30.796Z,1.00
2022-08-07T13:36:39.856Z,1.00
2022-08-07T13:39:28.513Z,1.00
2022-08-07T13:42:10.240Z,1.00
2022-08-07T13:44:39.709Z,1.00
2022-08-07T13:47:15.776Z,1.00
2022-08-07T13:50:34.995Z,1.00
2022-08-07T13:52:41.416Z,1.00
2022-08-07T13:55:19.694Z,1.00
2022-08-07T13:58:27.629Z,1.00
2022-08-07T14:01:09.075Z,1.00
2022-08-07T14:04:07.236Z,1.00
2022-08-07T14:06:36.903Z,1.00
2022-08-07T14:10:02.332Z,1.00
2022-08-07T14:12:04.910Z,1.00
2022-08-07T14:14:54.600Z,1.00
2022-08-07T14:18:12.152Z,1.00
2022-08-07T14:20:42.943Z,1.00
2022-08-07T14:23:59.578Z,1.00
2022-08-07T14:26:28.246Z,1.00
2022-08-07T14:29:04.512Z,1.00
2022-08-07T14:31:43.019Z,1.00
2022-08-07T14:34:29.604Z,1.00
2022-08-07T14:37:01.667Z,1.00
2022-08-07T14:40:17.892Z,1.00
2022-08-07T14:43:55.621Z,1.00
2022-08-07T14:45:46.673Z,1.00
2022-08-07T14:48:20.200Z,1.00
2022-08-07T14:50:56.455Z,1.00
2022-08-07T14:54:05.733Z,1.00
2022-08-07T14:56:15.965Z,1.00
2022-08-07T15:01:58.358Z,1.00
2022-08-07T15:04:29.062Z,1.00
2022-08-07T15:06:58.040Z,1.00
2022-08-07T15:09:59.210Z,1.00
2022-08-07T15:12:26.096Z,1.00
2022-08-07T15:15:07.392Z,1.00
2022-08-07T15:17:55.174Z,1.00
2022-08-07T15:20:32.405Z,1.00
2022-08-07T15:25:56.164Z,1.00
2022-08-07T15:28:34.999Z,1.00
2022-08-07T15:34:01.455Z,1.00
2022-08-07T15:39:17.878Z,1.00
2022-08-07T15:42:44.857Z,1.00
2022-08-07T15:44:52.554Z,1.00
2022-08-07T15:47:21.812Z,1.00
2022-08-07T15:50:37.433Z,1.00
2022-08-07T15:53:06.600Z,1.00
2022-08-07T15:55:53.506Z,1.00
2022-08-07T15:58:37.366Z,1.00
2022-08-07T16:01:12.710Z,1.00
2022-08-07T16:03:47.346Z,1.00
2022-08-07T16:06:16.623Z,1.00
2022-08-07T16:08:46.375Z,1.00
2022-08-07T16:11:28.905Z,1.00
2022-08-07T16:14:29.741Z,1.00
2022-08-07T16:17:14.833Z,1.00
2022-08-07T16:20:34.208Z,1.00
2022-08-07T16:23:25.382Z,1.00
2022-08-07T16:26:17.401Z,1.00
2022-08-07T16:30:06.257Z,1.00
2022-08-07T16:32:03.006Z,1.00
2022-08-07T16:35:02.130Z,1.00
2022-08-07T16:38:05.946Z,1.00
2022-08-07T16:41:01.678Z,1.00
2022-08-07T16:44:04.188Z,1.00
2022-08-07T16:47:12.899Z,1.00
2022-08-07T16:50:27.790Z,1.00
2022-08-07T16:54:01.509Z,1.00
2022-08-07T16:56:02.790Z,1.00
2022-08-07T16:59:10.198Z,1.00
2022-08-07T17:01:34.447Z,1.00
2022-08-07T17:04:04.586Z,1.00
2022-08-07T17:07:03.494Z,1.00
2022-08-07T17:10:05.413Z,1.00
2022-08-07T17:12:44.344Z,1.00
2022-08-07T17:15:15.670Z,1.00
2022-08-07T17:17:48.880Z,1.00
2022-08-07T17:20:31.184Z,1.00
2022-08-07T17:23:12.836Z,1.00
2022-08-07T17:26:06.000Z,1.00
2022-08-07T17:30:14.142Z,1.00
2022-08-07T17:32:51.937Z,1.00
2022-08-07T17:35:55.202Z,1.00
2022-08-07T17:38:39.749Z,1.00
2022-08-07T17:42:02.898Z,1.00
2022-08-07T17:44:33.667Z,1.00
2022-08-07T17:47:41.804Z,1.00
2022-08-07T17:50:20.884Z,1.00
2022-08-07T17:53:59.988Z,1.00
2022-08-07T17:56:26.139Z,1.00
2022-08-07T17:59:02.315Z,1.00
2022-08-07T18:01:37.786Z,1.00
2022-08-07T18:04:24.517Z,1.00
2022-08-07T18:07:20.299Z,1.00
2022-08-07T18:10:05.834Z,1.00
2022-08-07T18:13:06.720Z,1.00
2022-08-07T18:15:56.637Z,1.00
2022-08-07T18:18:47.071Z,1.00
2022-08-07T18:21:58.336Z,1.00
2022-08-07T18:24:40.219Z,1.00
2022-08-07T18:27:17.471Z,1.00
2022-08-07T18:30:07.566Z,1.00
2022-08-07T18:32:46.208Z,1.00
2022-08-07T18:35:55.559Z,1.00
2022-08-07T18:38:59.368Z,1.00
2022-08-07T18:42:05.238Z,1.00
2022-08-07T18:45:44.364Z,1.00
2022-08-07T18:48:08.358Z,1.00
2022-08-07T18:50:48.635Z,1.00
2022-08-07T18:53:22.027Z,1.00
2022-08-07T18:56:16.796Z,1.00
2022-08-07T18:59:09.458Z,1.00
2022-08-07T19:02:33.139Z,1.00
2022-08-07T19:05:15.609Z,1.00
2022-08-07T19:08:05.178Z,1.00
2022-08-07T19:10:51.392Z,1.20
2022-08-07T19:13:50.234Z,2.00
2022-08-07T19:17:04.666Z,2.90
2022-08-07T19:19:46.562Z,3.80
2022-08-07T19:22:31.306Z,5.30
2022-08-07T19:25:05.630Z,7.50
2022-08-07T19:29:02.924Z,9.10
2022-08-07T19:31:04.153Z,9.60
2022-08-07T19:33:34.608Z,10.30
2022-08-07T19:36:03.778Z,10.80
2022-08-07T19:38:34.064Z,11.80
2022-08-07T19:41:02.773Z,12.90
2022-08-07T19:43:43.548Z,13.80
2022-08-07T19:46:26.707Z,15.00
2022-08-07T19:49:06.937Z,15.30
2022-08-07T19:51:52.453Z,16.30
2022-08-07T19:54:33.180Z,17.70
2022-08-07T19:58:01.299Z,18.90
2022-08-07T20:00:09.033Z,19.10
2022-08-07T20:02:51.664Z,19.90
2022-08-07T20:06:00.756Z,20.00
2022-08-07T20:08:32.468Z,20.50
2022-08-07T20:11:10.098Z,21.70
2022-08-07T20:13:46.612Z,22.70
2022-08-07T20:16:32.298Z,23.20
2022-08-07T20:19:05.896Z,24.30
2022-08-07T20:21:46.672Z,25.00
2022-08-07T20:24:32.758Z,25.70
2022-08-07T20:27:02.703Z,26.80
2022-08-07T20:29:48.210Z,27.90
2022-08-07T20:32:25.100Z,28.00
2022-08-07T20:34:57.143Z,28.80
2022-08-07T20:37:30.015Z,29.30
2022-08-07T20:40:05.020Z,30.00
2022-08-07T20:42:56.236Z,30.50
2022-08-07T20:45:32.592Z,31.40
2022-08-07T20:48:28.407Z,32.80
2022-08-07T20:51:04.643Z,33.20
2022-08-07T20:54:03.779Z,34.40
2022-08-07T20:56:30.705Z,34.60
2022-08-07T20:59:05.397Z,35.30
2022-08-07T21:01:45.316Z,36.90
2022-08-07T21:04:27.228Z,38.10
2022-08-07T21:07:03.808Z,39.20
2022-08-07T21:09:53.222Z,38.90
2022-08-07T21:12:29.131Z,40.70
2022-08-07T21:15:02.460Z,40.80
2022-08-07T21:18:20.382Z,41.50
2022-08-07T21:20:29.525Z,43.20
2022-08-07T21:22:59.313Z,44.40
2022-08-07T21:26:12.290Z,44.30
2022-08-07T21:28:48.479Z,46.60
2022-08-07T21:31:49.857Z,47.70
2022-08-07T21:34:31.905Z,48.80
2022-08-07T21:37:22.801Z,50.00
2022-08-07T21:40:03.600Z,50.80
2022-08-07T21:43:01.268Z,52.90
2022-08-07T21:46:10.554Z,52.70
2022-08-07T21:49:04.663Z,55.20
2022-08-07T21:52:04.319Z,56.00
2022-08-07T21:54:57.296Z,56.90
2022-08-07T21:58:01.416Z,58.80
2022-08-07T22:00:32.057Z,60.50
2022-08-07T22:03:10.847Z,61.90
2022-08-07T22:06:07.747Z,64.40
2022-08-07T22:09:02.345Z,65.50
2022-08-07T22:12:05.876Z,66.60
2022-08-07T22:14:35.095Z,67.80
2022-08-07T22:17:07.452Z,69.70
2022-08-07T22:19:42.320Z,71.30
2022-08-07T22:22:20.870Z,72.00
2022-08-07T22:25:02.942Z,74.20
2022-08-07T22:28:07.426Z,76.90
2022-08-07T22:31:45.710Z,79.00
2022-08-07T22:34:13.046Z,79.80
2022-08-07T22:36:55.666Z,80.50
2022-08-07T22:39:52.910Z,82.10
2022-08-07T22:42:25.604Z,82.20
2022-08-07T22:44:58.259Z,83.90
2022-08-07T22:47:59.504Z,84.20
2022-08-07T22:51:07.690Z,84.60
2022-08-07T22:54:06.830Z,85.30
2022-08-07T22:57:18.043Z,86.00
2022-08-07T22:59:49.748Z,86.20
2022-08-07T23:02:31.497Z,85.90
2022-08-07T23:06:06.895Z,86.70
2022-08-07T23:08:30.259Z,87.20
2022-08-07T23:11:17.526Z,87.00
2022-08-07T23:14:16.439Z,87.70
2022-08-07T23:17:08.466Z,87.70
2022-08-07T23:20:13.664Z,88.00
2022-08-07T23:24:05.824Z,88.50
2022-08-07T23:26:24.980Z,88.90
2022-08-07T23:29:01.803Z,89.60
2022-08-07T23:34:22.935Z,90.10
2022-08-07T23:34:45.292Z,90.30
2022-08-07T23:37:20.081Z,90.30
2022-08-07T23:40:07.970Z,90.20
2022-08-07T23:43:16.995Z,91.50
2022-08-07T23:46:02.604Z,91.40
2022-08-07T23:48:47.057Z,91.30
2022-08-07T23:53:00.476Z,91.50
2022-08-07T23:54:19.914Z,91.40
2022-08-07T23:57:09.902Z,92.00
